Terminal Aerodrome Forecast
Issued by NWS

Home | Current Version | Previous Version | Text Only | Print | Product List | Glossary Off
Versions: 1 2 3 4 5 6 7 8 9 10 11 12 13 14 15 16 17 18 19 20 21 22 23 24 25 26 27 28 29 30 31 32 33 34 35 36 37 38 39 40 41 42 43 44 45 46 47 48 49 50

792
FTUS43 KLOT 180301 AAA
TAFGYY
TAF AMD
KGYY 180301Z 1803/1824 26012G18KT P6SM FEW025 BKN050
     FM180600 27012KT P6SM SCT050
     FM181500 28014G20KT P6SM SCT040=

USA.gov is the U.S. government's official web portal to all federal, state and local government web resources and services.